Terminal Aerodrome Forecast
Issued by NWS

Home | Current Version | Previous Version | Text Only | Print | Product List | Glossary Off
Versions: 1 2 3 4 5 6 7 8 9 10 11 12 13 14

000
FTUS43 KMPX 161100 RRA
TAFAXN
TAF
KAXN 161146Z 1612/1712 34016G24KT P6SM OVC014
     FM161600 34016KT P6SM OVC020
     FM170200 33009KT P6SM OVC025=

USA.gov is the U.S. government's official web portal to all federal, state and local government web resources and services.